sensor_id;sensor_type;location;lat;lon;timestamp;temperature;humidity
20155;DHT22;10238;49.556;10.956;2023-08-08T00:01:54;11.00;99.90
20155;DHT22;10238;49.556;10.956;2023-08-08T00:04:42;11.00;99.90
20155;DHT22;10238;49.556;10.956;2023-08-08T00:07:32;11.00;99.90
20155;DHT22;10238;49.556;10.956;2023-08-08T00:10:19;11.00;99.90
20155;DHT22;10238;49.556;10.956;2023-08-08T00:13:06;11.00;99.90
20155;DHT22;10238;49.556;10.956;2023-08-08T00:15:54;11.00;99.90
20155;DHT22;10238;49.556;10.956;2023-08-08T00:18:42;11.00;99.90
20155;DHT22;10238;49.556;10.956;2023-08-08T00:21:29;11.10;99.90
20155;DHT22;10238;49.556;10.956;2023-08-08T00:24:18;11.20;99.90
20155;DHT22;10238;49.556;10.956;2023-08-08T00:27:06;11.10;99.90
20155;DHT22;10238;49.556;10.956;2023-08-08T00:29:53;11.10;99.90
20155;DHT22;10238;49.556;10.956;2023-08-08T00:32:41;11.10;99.90
20155;DHT22;10238;49.556;10.956;2023-08-08T00:35:28;11.10;99.90
20155;DHT22;10238;49.556;10.956;2023-08-08T00:38:16;11.10;99.90
20155;DHT22;10238;49.556;10.956;2023-08-08T00:41:05;11.10;99.90
20155;DHT22;10238;49.556;10.956;2023-08-08T00:43:53;11.20;99.90
20155;DHT22;10238;49.556;10.956;2023-08-08T00:46:41;11.20;99.90
20155;DHT22;10238;49.556;10.956;2023-08-08T00:49:29;11.20;99.90
20155;DHT22;10238;49.556;10.956;2023-08-08T00:52:16;11.20;99.90
20155;DHT22;10238;49.556;10.956;2023-08-08T00:55:04;11.20;99.90
20155;DHT22;10238;49.556;10.956;2023-08-08T00:57:54;11.20;99.90
20155;DHT22;10238;49.556;10.956;2023-08-08T01:00:42;11.20;99.90
20155;DHT22;10238;49.556;10.956;2023-08-08T01:03:30;11.20;99.90
20155;DHT22;10238;49.556;10.956;2023-08-08T01:06:19;11.20;99.90
20155;DHT22;10238;49.556;10.956;2023-08-08T01:09:17;11.20;99.90
20155;DHT22;10238;49.556;10.956;2023-08-08T01:12:14;11.20;99.90
20155;DHT22;10238;49.556;10.956;2023-08-08T01:15:04;11.20;99.90
20155;DHT22;10238;49.556;10.956;2023-08-08T01:17:53;11.20;99.90
20155;DHT22;10238;49.556;10.956;2023-08-08T01:20:42;11.30;99.90
20155;DHT22;10238;49.556;10.956;2023-08-08T01:23:33;11.30;99.90
20155;DHT22;10238;49.556;10.956;2023-08-08T01:26:30;11.30;99.90
20155;DHT22;10238;49.556;10.956;2023-08-08T01:29:19;11.30;99.90
20155;DHT22;10238;49.556;10.956;2023-08-08T01:32:06;11.30;99.90
20155;DHT22;10238;49.556;10.956;2023-08-08T01:34:54;11.30;99.90
20155;DHT22;10238;49.556;10.956;2023-08-08T01:37:44;11.40;99.90
20155;DHT22;10238;49.556;10.956;2023-08-08T01:40:33;11.40;99.90
20155;DHT22;10238;49.556;10.956;2023-08-08T01:43:23;11.40;99.90
20155;DHT22;10238;49.556;10.956;2023-08-08T01:46:11;11.40;99.90
20155;DHT22;10238;49.556;10.956;2023-08-08T01:48:59;11.40;99.90
20155;DHT22;10238;49.556;10.956;2023-08-08T01:51:47;11.40;99.90
20155;DHT22;10238;49.556;10.956;2023-08-08T01:54:36;11.40;99.90
20155;DHT22;10238;49.556;10.956;2023-08-08T01:57:24;11.40;99.90
20155;DHT22;10238;49.556;10.956;2023-08-08T02:00:13;11.40;99.90
20155;DHT22;10238;49.556;10.956;2023-08-08T02:03:01;11.40;99.90
20155;DHT22;10238;49.556;10.956;2023-08-08T02:05:48;11.40;99.90
20155;DHT22;10238;49.556;10.956;2023-08-08T02:08:36;11.40;99.90
20155;DHT22;10238;49.556;10.956;2023-08-08T02:11:23;11.40;99.90
20155;DHT22;10238;49.556;10.956;2023-08-08T02:14:10;11.40;99.90
20155;DHT22;10238;49.556;10.956;2023-08-08T02:16:59;11.40;99.90
20155;DHT22;10238;49.556;10.956;2023-08-08T02:19:47;11.30;99.90
20155;DHT22;10238;49.556;10.956;2023-08-08T02:22:34;11.30;99.90
20155;DHT22;10238;49.556;10.956;2023-08-08T02:25:22;11.30;99.90
20155;DHT22;10238;49.556;10.956;2023-08-08T02:28:09;11.30;99.90
20155;DHT22;10238;49.556;10.956;2023-08-08T02:30:57;11.30;99.90
20155;DHT22;10238;49.556;10.956;2023-08-08T02:33:46;11.20;99.90
20155;DHT22;10238;49.556;10.956;2023-08-08T02:36:34;11.20;99.90
20155;DHT22;10238;49.556;10.956;2023-08-08T02:39:21;11.20;99.90
20155;DHT22;10238;49.556;10.956;2023-08-08T02:42:09;11.20;99.90
20155;DHT22;10238;49.556;10.956;2023-08-08T02:44:57;11.20;99.90
20155;DHT22;10238;49.556;10.956;2023-08-08T02:47:44;11.20;99.90
20155;DHT22;10238;49.556;10.956;2023-08-08T02:50:36;11.30;99.90
20155;DHT22;10238;49.556;10.956;2023-08-08T02:53:24;11.20;99.90
20155;DHT22;10238;49.556;10.956;2023-08-08T02:56:11;11.30;99.90
20155;DHT22;10238;49.556;10.956;2023-08-08T02:58:59;11.30;99.90
20155;DHT22;10238;49.556;10.956;2023-08-08T03:01:46;11.30;99.90
20155;DHT22;10238;49.556;10.956;2023-08-08T03:04:35;11.30;99.90
20155;DHT22;10238;49.556;10.956;2023-08-08T03:07:24;11.30;99.90
20155;DHT22;10238;49.556;10.956;2023-08-08T03:10:12;11.30;99.90
20155;DHT22;10238;49.556;10.956;2023-08-08T03:12:59;11.30;99.90
20155;DHT22;10238;49.556;10.956;2023-08-08T03:15:47;11.30;99.90
20155;DHT22;10238;49.556;10.956;2023-08-08T03:18:34;11.40;99.90
20155;DHT22;10238;49.556;10.956;2023-08-08T03:21:22;11.40;99.90
20155;DHT22;10238;49.556;10.956;2023-08-08T03:24:11;11.40;99.90
20155;DHT22;10238;49.556;10.956;2023-08-08T03:26:58;11.50;99.90
20155;DHT22;10238;49.556;10.956;2023-08-08T03:29:46;11.40;99.90
20155;DHT22;10238;49.556;10.956;2023-08-08T03:32:33;11.50;99.90
20155;DHT22;10238;49.556;10.956;2023-08-08T03:35:21;11.40;99.90
20155;DHT22;10238;49.556;10.956;2023-08-08T03:38:08;11.40;99.90
20155;DHT22;10238;49.556;10.956;2023-08-08T03:40:57;11.40;99.90
20155;DHT22;10238;49.556;10.956;2023-08-08T03:43:44;11.30;99.90
20155;DHT22;10238;49.556;10.956;2023-08-08T03:46:32;11.30;99.90
20155;DHT22;10238;49.556;10.956;2023-08-08T03:49:21;11.20;99.90
20155;DHT22;10238;49.556;10.956;2023-08-08T03:52:08;11.20;99.90
20155;DHT22;10238;49.556;10.956;2023-08-08T03:54:56;11.10;99.90
20155;DHT22;10238;49.556;10.956;2023-08-08T03:57:45;11.10;99.90
20155;DHT22;10238;49.556;10.956;2023-08-08T04:00:32;11.10;99.90
20155;DHT22;10238;49.556;10.956;2023-08-08T04:03:20;11.00;99.90
20155;DHT22;10238;49.556;10.956;2023-08-08T04:06:07;11.00;99.90
20155;DHT22;10238;49.556;10.956;2023-08-08T04:08:55;11.00;99.90
20155;DHT22;10238;49.556;10.956;2023-08-08T04:11:43;11.00;99.90
20155;DHT22;10238;49.556;10.956;2023-08-08T04:14:32;11.00;99.90
20155;DHT22;10238;49.556;10.956;2023-08-08T04:17:19;11.00;99.90
20155;DHT22;10238;49.556;10.956;2023-08-08T04:20:07;11.00;99.90
20155;DHT22;10238;49.556;10.956;2023-08-08T04:22:55;10.90;99.90
20155;DHT22;10238;49.556;10.956;2023-08-08T04:25:43;10.90;99.90
20155;DHT22;10238;49.556;10.956;2023-08-08T04:28:31;10.90;99.90
20155;DHT22;10238;49.556;10.956;2023-08-08T04:31:20;10.80;99.90
20155;DHT22;10238;49.556;10.956;2023-08-08T04:34:10;10.80;99.90
20155;DHT22;10238;49.556;10.956;2023-08-08T04:36:58;10.80;99.90
20155;DHT22;10238;49.556;10.956;2023-08-08T04:39:45;10.80;99.90
20155;DHT22;10238;49.556;10.956;2023-08-08T04:42:33;10.80;99.90
20155;DHT22;10238;49.556;10.956;2023-08-08T04:45:20;10.80;99.90
20155;DHT22;10238;49.556;10.956;2023-08-08T04:48:09;10.80;99.90
20155;DHT22;10238;49.556;10.956;2023-08-08T04:50:57;10.80;99.90
20155;DHT22;10238;49.556;10.956;2023-08-08T04:53:44;10.80;99.90
20155;DHT22;10238;49.556;10.956;2023-08-08T04:56:32;10.80;99.90
20155;DHT22;10238;49.556;10.956;2023-08-08T04:59:19;10.90;99.90
20155;DHT22;10238;49.556;10.956;2023-08-08T05:02:07;10.90;99.90
20155;DHT22;10238;49.556;10.956;2023-08-08T05:04:56;10.90;99.90
20155;DHT22;10238;49.556;10.956;2023-08-08T05:07:44;10.90;99.90
20155;DHT22;10238;49.556;10.956;2023-08-08T05:10:31;10.90;99.90
20155;DHT22;10238;49.556;10.956;2023-08-08T05:13:18;10.90;99.90
20155;DHT22;10238;49.556;10.956;2023-08-08T05:16:06;10.90;99.90
20155;DHT22;10238;49.556;10.956;2023-08-08T05:18:54;10.90;99.90
20155;DHT22;10238;49.556;10.956;2023-08-08T05:21:42;11.00;99.90
20155;DHT22;10238;49.556;10.956;2023-08-08T05:24:30;11.00;99.90
20155;DHT22;10238;49.556;10.956;2023-08-08T05:27:18;11.10;99.90
20155;DHT22;10238;49.556;10.956;2023-08-08T05:30:06;11.10;99.90
20155;DHT22;10238;49.556;10.956;2023-08-08T05:32:54;11.20;99.90
20155;DHT22;10238;49.556;10.956;2023-08-08T05:35:41;11.30;99.90
20155;DHT22;10238;49.556;10.956;2023-08-08T05:38:30;11.40;99.90
20155;DHT22;10238;49.556;10.956;2023-08-08T05:41:18;11.50;99.90
20155;DHT22;10238;49.556;10.956;2023-08-08T05:44:05;11.60;99.90
20155;DHT22;10238;49.556;10.956;2023-08-08T05:46:53;11.60;99.90
20155;DHT22;10238;49.556;10.956;2023-08-08T05:49:41;11.70;99.90
20155;DHT22;10238;49.556;10.956;2023-08-08T05:52:29;11.70;99.90
20155;DHT22;10238;49.556;10.956;2023-08-08T05:55:18;11.80;99.90
20155;DHT22;10238;49.556;10.956;2023-08-08T05:58:06;11.90;99.90
20155;DHT22;10238;49.556;10.956;2023-08-08T06:00:53;12.00;99.90
20155;DHT22;10238;49.556;10.956;2023-08-08T06:03:41;12.10;99.90
20155;DHT22;10238;49.556;10.956;2023-08-08T06:06:28;12.20;99.90
20155;DHT22;10238;49.556;10.956;2023-08-08T06:09:16;12.30;99.90
20155;DHT22;10238;49.556;10.956;2023-08-08T06:12:05;12.50;99.90
20155;DHT22;10238;49.556;10.956;2023-08-08T06:14:53;12.60;99.90
20155;DHT22;10238;49.556;10.956;2023-08-08T06:17:41;12.80;99.90
20155;DHT22;10238;49.556;10.956;2023-08-08T06:20:28;12.90;99.90
20155;DHT22;10238;49.556;10.956;2023-08-08T06:23:16;13.00;99.90
20155;DHT22;10238;49.556;10.956;2023-08-08T06:26:04;13.10;99.90
20155;DHT22;10238;49.556;10.956;2023-08-08T06:28:53;13.20;99.90
20155;DHT22;10238;49.556;10.956;2023-08-08T06:31:40;13.30;99.90
20155;DHT22;10238;49.556;10.956;2023-08-08T06:34:28;13.40;99.90
20155;DHT22;10238;49.556;10.956;2023-08-08T06:37:15;13.50;99.90
20155;DHT22;10238;49.556;10.956;2023-08-08T06:40:03;13.60;99.90
20155;DHT22;10238;49.556;10.956;2023-08-08T06:42:53;13.80;99.90
20155;DHT22;10238;49.556;10.956;2023-08-08T06:45:42;14.00;99.90
20155;DHT22;10238;49.556;10.956;2023-08-08T06:48:30;14.10;99.90
20155;DHT22;10238;49.556;10.956;2023-08-08T06:51:17;14.20;99.90
20155;DHT22;10238;49.556;10.956;2023-08-08T06:54:05;14.30;99.90
20155;DHT22;10238;49.556;10.956;2023-08-08T06:56:53;14.50;99.90
20155;DHT22;10238;49.556;10.956;2023-08-08T06:59:45;14.50;99.90
20155;DHT22;10238;49.556;10.956;2023-08-08T07:02:38;14.70;99.90
20155;DHT22;10238;49.556;10.956;2023-08-08T07:05:25;14.80;99.90
20155;DHT22;10238;49.556;10.956;2023-08-08T07:08:13;15.00;99.90
20155;DHT22;10238;49.556;10.956;2023-08-08T07:11:00;15.10;99.90
20155;DHT22;10238;49.556;10.956;2023-08-08T07:13:48;15.20;99.90
20155;DHT22;10238;49.556;10.956;2023-08-08T07:16:36;15.30;99.90
20155;DHT22;10238;49.556;10.956;2023-08-08T07:19:25;15.50;99.90
20155;DHT22;10238;49.556;10.956;2023-08-08T07:22:12;15.70;99.90
20155;DHT22;10238;49.556;10.956;2023-08-08T07:25:00;15.70;99.90
20155;DHT22;10238;49.556;10.956;2023-08-08T07:27:48;15.90;99.90
20155;DHT22;10238;49.556;10.956;2023-08-08T07:30:36;16.10;99.90
20155;DHT22;10238;49.556;10.956;2023-08-08T07:33:23;16.30;99.90
20155;DHT22;10238;49.556;10.956;2023-08-08T07:36:12;16.50;99.90
20155;DHT22;10238;49.556;10.956;2023-08-08T07:39:00;16.70;99.90
20155;DHT22;10238;49.556;10.956;2023-08-08T07:41:47;16.80;99.90
20155;DHT22;10238;49.556;10.956;2023-08-08T07:44:35;16.80;99.90
20155;DHT22;10238;49.556;10.956;2023-08-08T07:47:24;17.00;99.90
20155;DHT22;10238;49.556;10.956;2023-08-08T07:50:11;17.20;99.90
20155;DHT22;10238;49.556;10.956;2023-08-08T07:53:00;17.40;99.90
20155;DHT22;10238;49.556;10.956;2023-08-08T07:55:48;17.60;99.90
20155;DHT22;10238;49.556;10.956;2023-08-08T07:58:35;17.90;99.90
20155;DHT22;10238;49.556;10.956;2023-08-08T08:01:23;18.10;99.90
20155;DHT22;10238;49.556;10.956;2023-08-08T08:04:13;18.40;99.90
20155;DHT22;10238;49.556;10.956;2023-08-08T08:09:50;18.80;99.90
20155;DHT22;10238;49.556;10.956;2023-08-08T08:12:38;19.10;99.90
20155;DHT22;10238;49.556;10.956;2023-08-08T08:15:25;19.30;99.90
20155;DHT22;10238;49.556;10.956;2023-08-08T08:18:14;19.30;99.90
20155;DHT22;10238;49.556;10.956;2023-08-08T08:21:04;19.50;99.90
20155;DHT22;10238;49.556;10.956;2023-08-08T08:23:52;19.60;99.90
20155;DHT22;10238;49.556;10.956;2023-08-08T08:26:41;19.60;99.90
20155;DHT22;10238;49.556;10.956;2023-08-08T08:29:28;19.90;99.90
20155;DHT22;10238;49.556;10.956;2023-08-08T08:32:17;19.90;99.90
20155;DHT22;10238;49.556;10.956;2023-08-08T08:35:05;19.90;99.90
20155;DHT22;10238;49.556;10.956;2023-08-08T08:37:53;19.80;99.90
20155;DHT22;10238;49.556;10.956;2023-08-08T08:40:41;20.10;99.90
20155;DHT22;10238;49.556;10.956;2023-08-08T08:43:32;20.30;99.90
20155;DHT22;10238;49.556;10.956;2023-08-08T08:46:20;20.60;99.90
20155;DHT22;10238;49.556;10.956;2023-08-08T08:49:08;20.70;99.90
20155;DHT22;10238;49.556;10.956;2023-08-08T08:51:58;20.70;99.90
20155;DHT22;10238;49.556;10.956;2023-08-08T08:54:48;20.90;99.90
20155;DHT22;10238;49.556;10.956;2023-08-08T08:57:35;21.10;99.90
20155;DHT22;10238;49.556;10.956;2023-08-08T09:00:24;21.10;99.90
20155;DHT22;10238;49.556;10.956;2023-08-08T09:03:12;21.20;99.90
20155;DHT22;10238;49.556;10.956;2023-08-08T09:06:00;21.30;99.90
20155;DHT22;10238;49.556;10.956;2023-08-08T09:08:48;21.40;99.90
20155;DHT22;10238;49.556;10.956;2023-08-08T09:11:38;21.30;99.90
20155;DHT22;10238;49.556;10.956;2023-08-08T09:14:26;21.40;99.90
20155;DHT22;10238;49.556;10.956;2023-08-08T09:17:15;21.70;99.90
20155;DHT22;10238;49.556;10.956;2023-08-08T09:20:03;21.70;99.90
20155;DHT22;10238;49.556;10.956;2023-08-08T09:22:51;21.70;99.90
20155;DHT22;10238;49.556;10.956;2023-08-08T09:25:39;21.60;99.90
20155;DHT22;10238;49.556;10.956;2023-08-08T09:28:27;21.70;99.90
20155;DHT22;10238;49.556;10.956;2023-08-08T09:31:14;21.70;99.90
20155;DHT22;10238;49.556;10.956;2023-08-08T09:34:04;21.80;99.90
20155;DHT22;10238;49.556;10.956;2023-08-08T09:36:52;21.90;99.90
20155;DHT22;10238;49.556;10.956;2023-08-08T09:39:40;22.00;99.90
20155;DHT22;10238;49.556;10.956;2023-08-08T09:42:27;22.50;99.90
20155;DHT22;10238;49.556;10.956;2023-08-08T09:45:15;22.60;99.90
20155;DHT22;10238;49.556;10.956;2023-08-08T09:48:03;22.70;99.90
20155;DHT22;10238;49.556;10.956;2023-08-08T09:50:53;22.60;99.90
20155;DHT22;10238;49.556;10.956;2023-08-08T09:53:41;22.60;99.90
20155;DHT22;10238;49.556;10.956;2023-08-08T09:56:30;22.70;99.90
20155;DHT22;10238;49.556;10.956;2023-08-08T09:59:18;23.00;99.90
20155;DHT22;10238;49.556;10.956;2023-08-08T10:02:08;23.10;99.90
20155;DHT22;10238;49.556;10.956;2023-08-08T10:05:01;23.20;99.90
20155;DHT22;10238;49.556;10.956;2023-08-08T10:07:50;23.30;99.90
20155;DHT22;10238;49.556;10.956;2023-08-08T10:10:38;23.40;99.90
20155;DHT22;10238;49.556;10.956;2023-08-08T10:13:28;23.70;99.90
20155;DHT22;10238;49.556;10.956;2023-08-08T10:16:16;23.70;99.90
20155;DHT22;10238;49.556;10.956;2023-08-08T10:19:04;23.50;99.90
20155;DHT22;10238;49.556;10.956;2023-08-08T10:21:56;23.50;99.90
20155;DHT22;10238;49.556;10.956;2023-08-08T10:27:38;23.90;99.90
20155;DHT22;10238;49.556;10.956;2023-08-08T10:30:25;24.10;99.90
20155;DHT22;10238;49.556;10.956;2023-08-08T10:33:17;24.10;99.90
20155;DHT22;10238;49.556;10.956;2023-08-08T10:36:05;24.30;99.90
20155;DHT22;10238;49.556;10.956;2023-08-08T10:38:57;24.20;99.90
20155;DHT22;10238;49.556;10.956;2023-08-08T10:41:47;24.10;99.90
20155;DHT22;10238;49.556;10.956;2023-08-08T10:44:40;24.00;99.90
20155;DHT22;10238;49.556;10.956;2023-08-08T10:47:30;24.00;99.90
20155;DHT22;10238;49.556;10.956;2023-08-08T10:50:21;24.00;99.90
20155;DHT22;10238;49.556;10.956;2023-08-08T10:53:10;24.30;99.90
20155;DHT22;10238;49.556;10.956;2023-08-08T10:55:59;24.20;99.90
20155;DHT22;10238;49.556;10.956;2023-08-08T10:58:49;24.30;99.90
20155;DHT22;10238;49.556;10.956;2023-08-08T11:01:36;24.20;99.90
20155;DHT22;10238;49.556;10.956;2023-08-08T11:04:24;24.00;99.90
20155;DHT22;10238;49.556;10.956;2023-08-08T11:07:13;23.90;99.90
20155;DHT22;10238;49.556;10.956;2023-08-08T11:10:01;23.90;99.90
20155;DHT22;10238;49.556;10.956;2023-08-08T11:12:53;24.20;99.90
20155;DHT22;10238;49.556;10.956;2023-08-08T11:15:43;24.30;99.90
20155;DHT22;10238;49.556;10.956;2023-08-08T11:18:31;24.40;99.90
20155;DHT22;10238;49.556;10.956;2023-08-08T11:21:18;24.40;99.90
20155;DHT22;10238;49.556;10.956;2023-08-08T11:24:06;24.30;99.90
20155;DHT22;10238;49.556;10.956;2023-08-08T11:26:57;24.40;99.90
20155;DHT22;10238;49.556;10.956;2023-08-08T11:29:48;24.50;99.90
20155;DHT22;10238;49.556;10.956;2023-08-08T11:32:38;24.60;99.90
20155;DHT22;10238;49.556;10.956;2023-08-08T11:35:25;24.70;99.90
20155;DHT22;10238;49.556;10.956;2023-08-08T11:38:13;24.70;99.90
20155;DHT22;10238;49.556;10.956;2023-08-08T11:41:01;24.70;99.90
20155;DHT22;10238;49.556;10.956;2023-08-08T11:43:50;24.80;99.90
20155;DHT22;10238;49.556;10.956;2023-08-08T11:46:42;25.00;99.90
20155;DHT22;10238;49.556;10.956;2023-08-08T11:49:39;25.00;99.90
20155;DHT22;10238;49.556;10.956;2023-08-08T11:52:27;25.00;99.90
20155;DHT22;10238;49.556;10.956;2023-08-08T11:55:15;25.10;99.90
20155;DHT22;10238;49.556;10.956;2023-08-08T11:58:12;25.30;99.90
20155;DHT22;10238;49.556;10.956;2023-08-08T12:01:01;25.20;99.90
20155;DHT22;10238;49.556;10.956;2023-08-08T12:03:48;25.10;99.90
20155;DHT22;10238;49.556;10.956;2023-08-08T12:06:37;24.90;99.90
20155;DHT22;10238;49.556;10.956;2023-08-08T12:09:28;25.10;99.90
20155;DHT22;10238;49.556;10.956;2023-08-08T12:15:06;25.40;99.90
20155;DHT22;10238;49.556;10.956;2023-08-08T12:17:59;25.60;99.90
20155;DHT22;10238;49.556;10.956;2023-08-08T12:20:48;25.70;99.90
20155;DHT22;10238;49.556;10.956;2023-08-08T12:23:38;25.80;99.90
20155;DHT22;10238;49.556;10.956;2023-08-08T12:26:25;25.90;99.90
20155;DHT22;10238;49.556;10.956;2023-08-08T12:29:12;25.90;99.90
20155;DHT22;10238;49.556;10.956;2023-08-08T12:32:00;25.90;99.90
20155;DHT22;10238;49.556;10.956;2023-08-08T12:34:48;25.80;99.90
20155;DHT22;10238;49.556;10.956;2023-08-08T12:37:35;25.90;99.90
20155;DHT22;10238;49.556;10.956;2023-08-08T12:40:25;26.00;99.90
20155;DHT22;10238;49.556;10.956;2023-08-08T12:46:03;26.40;99.90
20155;DHT22;10238;49.556;10.956;2023-08-08T12:48:51;26.30;99.90
20155;DHT22;10238;49.556;10.956;2023-08-08T12:51:39;26.40;99.90
20155;DHT22;10238;49.556;10.956;2023-08-08T12:54:26;26.20;99.90
20155;DHT22;10238;49.556;10.956;2023-08-08T12:57:16;26.20;99.90
20155;DHT22;10238;49.556;10.956;2023-08-08T13:02:57;26.10;99.90
20155;DHT22;10238;49.556;10.956;2023-08-08T13:05:48;26.00;99.90
20155;DHT22;10238;49.556;10.956;2023-08-08T13:08:36;26.00;99.90
20155;DHT22;10238;49.556;10.956;2023-08-08T13:11:25;25.80;99.90
20155;DHT22;10238;49.556;10.956;2023-08-08T13:14:14;25.70;99.90
20155;DHT22;10238;49.556;10.956;2023-08-08T13:17:02;25.80;99.90
20155;DHT22;10238;49.556;10.956;2023-08-08T13:19:52;25.90;98.60
20155;DHT22;10238;49.556;10.956;2023-08-08T13:22:40;25.90;99.90
20155;DHT22;10238;49.556;10.956;2023-08-08T13:25:28;25.90;99.50
20155;DHT22;10238;49.556;10.956;2023-08-08T13:28:16;25.90;99.80
20155;DHT22;10238;49.556;10.956;2023-08-08T13:31:05;25.90;99.40
20155;DHT22;10238;49.556;10.956;2023-08-08T13:33:54;26.00;99.90
20155;DHT22;10238;49.556;10.956;2023-08-08T13:36:42;26.10;99.90
20155;DHT22;10238;49.556;10.956;2023-08-08T13:39:30;25.70;99.90
20155;DHT22;10238;49.556;10.956;2023-08-08T13:42:20;25.50;99.90
20155;DHT22;10238;49.556;10.956;2023-08-08T13:45:07;25.30;99.90
20155;DHT22;10238;49.556;10.956;2023-08-08T13:47:58;25.50;99.90
20155;DHT22;10238;49.556;10.956;2023-08-08T13:50:46;25.50;99.70
20155;DHT22;10238;49.556;10.956;2023-08-08T13:53:33;25.50;99.90
20155;DHT22;10238;49.556;10.956;2023-08-08T13:56:21;25.70;99.90
20155;DHT22;10238;49.556;10.956;2023-08-08T13:59:08;25.70;99.90
20155;DHT22;10238;49.556;10.956;2023-08-08T14:01:56;25.90;97.90
20155;DHT22;10238;49.556;10.956;2023-08-08T14:04:46;26.00;99.90
20155;DHT22;10238;49.556;10.956;2023-08-08T14:07:34;26.30;99.90
20155;DHT22;10238;49.556;10.956;2023-08-08T14:10:22;26.30;99.20
20155;DHT22;10238;49.556;10.956;2023-08-08T14:13:10;26.40;96.80
20155;DHT22;10238;49.556;10.956;2023-08-08T14:15:57;26.40;99.70
20155;DHT22;10238;49.556;10.956;2023-08-08T14:18:45;26.60;98.50
20155;DHT22;10238;49.556;10.956;2023-08-08T14:21:34;26.60;96.60
20155;DHT22;10238;49.556;10.956;2023-08-08T14:24:21;26.50;99.40
20155;DHT22;10238;49.556;10.956;2023-08-08T14:27:09;26.40;99.30
20155;DHT22;10238;49.556;10.956;2023-08-08T14:29:56;26.30;99.40
20155;DHT22;10238;49.556;10.956;2023-08-08T14:32:44;26.10;96.50
20155;DHT22;10238;49.556;10.956;2023-08-08T14:35:32;25.70;99.20
20155;DHT22;10238;49.556;10.956;2023-08-08T14:38:23;25.70;99.90
20155;DHT22;10238;49.556;10.956;2023-08-08T14:41:11;25.90;99.00
20155;DHT22;10238;49.556;10.956;2023-08-08T14:43:59;25.70;99.40
20155;DHT22;10238;49.556;10.956;2023-08-08T14:46:46;25.70;96.70
20155;DHT22;10238;49.556;10.956;2023-08-08T14:49:34;25.50;98.00
20155;DHT22;10238;49.556;10.956;2023-08-08T14:52:21;25.40;99.50
20155;DHT22;10238;49.556;10.956;2023-08-08T14:55:13;25.30;99.90
20155;DHT22;10238;49.556;10.956;2023-08-08T14:58:01;25.30;99.60
20155;DHT22;10238;49.556;10.956;2023-08-08T15:00:49;25.20;99.90
20155;DHT22;10238;49.556;10.956;2023-08-08T15:03:37;25.10;98.40
20155;DHT22;10238;49.556;10.956;2023-08-08T15:06:25;24.90;99.90
20155;DHT22;10238;49.556;10.956;2023-08-08T15:09:12;24.90;99.90
20155;DHT22;10238;49.556;10.956;2023-08-08T15:12:01;24.90;98.60
20155;DHT22;10238;49.556;10.956;2023-08-08T15:14:49;24.80;99.70
20155;DHT22;10238;49.556;10.956;2023-08-08T15:17:36;24.80;99.70
20155;DHT22;10238;49.556;10.956;2023-08-08T15:20:24;24.70;99.20
20155;DHT22;10238;49.556;10.956;2023-08-08T15:23:12;24.70;98.80
20155;DHT22;10238;49.556;10.956;2023-08-08T15:26:02;24.50;98.90
20155;DHT22;10238;49.556;10.956;2023-08-08T15:28:51;24.40;98.80
20155;DHT22;10238;49.556;10.956;2023-08-08T15:31:38;24.40;99.10
20155;DHT22;10238;49.556;10.956;2023-08-08T15:34:26;24.40;98.70
20155;DHT22;10238;49.556;10.956;2023-08-08T15:37:14;24.30;97.20
20155;DHT22;10238;49.556;10.956;2023-08-08T15:40:01;23.90;99.40
20155;DHT22;10238;49.556;10.956;2023-08-08T15:42:51;23.90;99.10
20155;DHT22;10238;49.556;10.956;2023-08-08T15:45:40;23.90;99.00
20155;DHT22;10238;49.556;10.956;2023-08-08T15:48:28;23.80;99.00
20155;DHT22;10238;49.556;10.956;2023-08-08T15:51:15;23.80;98.60
20155;DHT22;10238;49.556;10.956;2023-08-08T15:54:03;23.70;99.20
20155;DHT22;10238;49.556;10.956;2023-08-08T15:56:51;23.70;98.90
20155;DHT22;10238;49.556;10.956;2023-08-08T15:59:39;23.60;99.40
20155;DHT22;10238;49.556;10.956;2023-08-08T16:02:29;23.50;99.30
20155;DHT22;10238;49.556;10.956;2023-08-08T16:05:17;23.40;99.80
20155;DHT22;10238;49.556;10.956;2023-08-08T16:08:05;23.40;99.30
20155;DHT22;10238;49.556;10.956;2023-08-08T16:10:52;23.40;99.30
20155;DHT22;10238;49.556;10.956;2023-08-08T16:13:40;23.30;99.00
20155;DHT22;10238;49.556;10.956;2023-08-08T16:16:28;23.10;98.90
20155;DHT22;10238;49.556;10.956;2023-08-08T16:19:19;23.00;98.30
20155;DHT22;10238;49.556;10.956;2023-08-08T16:22:07;22.80;99.10
20155;DHT22;10238;49.556;10.956;2023-08-08T16:24:56;22.80;99.50
20155;DHT22;10238;49.556;10.956;2023-08-08T16:27:43;22.90;99.30
20155;DHT22;10238;49.556;10.956;2023-08-08T16:30:31;22.80;99.70
20155;DHT22;10238;49.556;10.956;2023-08-08T16:33:20;22.70;99.60
20155;DHT22;10238;49.556;10.956;2023-08-08T16:36:09;22.50;97.80
20155;DHT22;10238;49.556;10.956;2023-08-08T16:38:56;22.30;98.90
20155;DHT22;10238;49.556;10.956;2023-08-08T16:42:01;22.20;99.90
20155;DHT22;10238;49.556;10.956;2023-08-08T16:44:49;22.10;99.90
20155;DHT22;10238;49.556;10.956;2023-08-08T16:53:13;21.90;99.90
20155;DHT22;10238;49.556;10.956;2023-08-08T16:56:02;21.90;99.90
20155;DHT22;10238;49.556;10.956;2023-08-08T16:58:52;21.80;99.70
20155;DHT22;10238;49.556;10.956;2023-08-08T17:01:40;21.70;99.90
20155;DHT22;10238;49.556;10.956;2023-08-08T17:04:30;21.80;99.90
20155;DHT22;10238;49.556;10.956;2023-08-08T17:07:18;21.70;99.90
20155;DHT22;10238;49.556;10.956;2023-08-08T17:10:07;21.60;99.90
20155;DHT22;10238;49.556;10.956;2023-08-08T17:12:55;21.60;99.90
20155;DHT22;10238;49.556;10.956;2023-08-08T17:15:43;21.50;99.90
20155;DHT22;10238;49.556;10.956;2023-08-08T17:18:31;21.50;99.90
20155;DHT22;10238;49.556;10.956;2023-08-08T17:21:19;21.40;99.90
20155;DHT22;10238;49.556;10.956;2023-08-08T17:24:06;21.30;99.90
20155;DHT22;10238;49.556;10.956;2023-08-08T17:26:55;21.30;99.90
20155;DHT22;10238;49.556;10.956;2023-08-08T17:32:30;21.10;99.90
20155;DHT22;10238;49.556;10.956;2023-08-08T17:35:18;21.00;99.90
20155;DHT22;10238;49.556;10.956;2023-08-08T17:38:05;20.90;99.90
20155;DHT22;10238;49.556;10.956;2023-08-08T17:40:53;20.90;99.90
20155;DHT22;10238;49.556;10.956;2023-08-08T17:46:30;20.80;99.90
20155;DHT22;10238;49.556;10.956;2023-08-08T17:49:17;20.70;99.90
20155;DHT22;10238;49.556;10.956;2023-08-08T17:52:05;20.60;99.90